createdAt,value
2018-08-14T00:00:43.610Z,24.33
2018-08-14T00:03:13.189Z,29.17
2018-08-14T00:05:41.596Z,24.77
2018-08-14T00:08:09.844Z,21.80
2018-08-14T00:10:38.148Z,25.63
2018-08-14T00:13:09.292Z,24.23
2018-08-14T00:15:37.672Z,19.63
2018-08-14T00:18:06.312Z,21.27
2018-08-14T00:20:34.601Z,24.83
2018-08-14T00:23:02.832Z,29.27
2018-08-14T00:25:31.077Z,23.93
2018-08-14T00:27:59.355Z,23.60
2018-08-14T00:30:28.944Z,23.20
2018-08-14T00:32:58.306Z,21.33
2018-08-14T00:35:26.677Z,19.07
2018-08-14T00:37:54.928Z,30.53
2018-08-14T00:40:23.784Z,16.50
2018-08-14T00:42:53.600Z,20.93
2018-08-14T00:45:22.155Z,25.13
2018-08-14T00:47:50.932Z,20.43
2018-08-14T00:50:19.211Z,20.27
2018-08-14T00:52:47.685Z,19.40
2018-08-14T00:55:17.008Z,17.13
2018-08-14T00:57:45.596Z,19.47
2018-08-14T01:00:20.452Z,23.03
2018-08-14T01:02:49.347Z,22.90
2018-08-14T01:05:18.116Z,19.33
2018-08-14T01:07:46.668Z,24.40
2018-08-14T01:10:15.267Z,25.13
2018-08-14T01:12:47.007Z,27.73
2018-08-14T01:15:16.833Z,27.77
2018-08-14T01:17:45.604Z,27.40
2018-08-14T01:20:14.693Z,30.00
2018-08-14T01:22:44.205Z,29.30
2018-08-14T01:25:12.483Z,30.27
2018-08-14T01:27:40.745Z,28.03
2018-08-14T01:30:16.628Z,30.00
2018-08-14T01:32:44.877Z,30.60
2018-08-14T01:35:13.117Z,30.00
2018-08-14T01:37:41.340Z,28.93
2018-08-14T01:40:09.591Z,29.30
2018-08-14T01:42:37.848Z,34.47
2018-08-14T01:45:07.029Z,36.30
2018-08-14T01:47:35.392Z,34.70
2018-08-14T01:50:04.364Z,33.13
2018-08-14T01:52:32.599Z,36.10
2018-08-14T01:55:00.857Z,44.20
2018-08-14T01:57:29.156Z,36.00
2018-08-14T01:59:57.445Z,41.40
2018-08-14T02:02:25.678Z,40.20
2018-08-14T02:04:53.933Z,53.07
2018-08-14T02:07:22.169Z,40.67
2018-08-14T02:09:50.445Z,40.80
2018-08-14T02:12:18.714Z,43.13
2018-08-14T02:14:46.973Z,48.47
2018-08-14T02:17:15.224Z,50.73
2018-08-14T02:19:43.450Z,42.53
2018-08-14T02:22:11.693Z,46.93
2018-08-14T02:24:39.912Z,43.20
2018-08-14T02:27:08.168Z,49.13
2018-08-14T02:29:36.397Z,47.40
2018-08-14T02:32:04.671Z,46.63
2018-08-14T02:34:32.897Z,39.13
2018-08-14T02:37:01.136Z,39.53
2018-08-14T02:39:29.376Z,40.50
2018-08-14T02:41:57.633Z,45.83
2018-08-14T02:44:25.845Z,39.73
2018-08-14T02:46:54.100Z,44.63
2018-08-14T02:49:22.396Z,45.73
2018-08-14T02:51:50.628Z,35.77
2018-08-14T02:54:18.873Z,41.90
2018-08-14T02:56:47.111Z,44.73
2018-08-14T02:59:15.320Z,41.90
2018-08-14T03:01:43.576Z,42.87
2018-08-14T03:04:11.783Z,44.63
2018-08-14T03:06:40.023Z,47.07
2018-08-14T03:09:10.060Z,45.30
2018-08-14T03:11:38.576Z,41.77
2018-08-14T03:14:07.224Z,47.93
2018-08-14T03:16:35.469Z,43.73
2018-08-14T03:19:03.988Z,42.80
2018-08-14T03:21:32.237Z,47.07
2018-08-14T03:24:00.760Z,49.80
2018-08-14T03:26:29.382Z,48.33
2018-08-14T03:28:57.704Z,47.40
2018-08-14T03:31:26.202Z,47.50
2018-08-14T03:33:54.433Z,49.13
2018-08-14T03:36:22.677Z,44.40
2018-08-14T03:38:50.911Z,45.47
2018-08-14T03:41:19.155Z,51.60
2018-08-14T03:43:47.382Z,55.20
2018-08-14T03:46:15.624Z,51.10
2018-08-14T03:48:43.868Z,47.27
2018-08-14T03:51:12.101Z,58.10
2018-08-14T03:53:40.323Z,49.30
2018-08-14T03:56:08.560Z,44.17
2018-08-14T03:58:36.832Z,49.77
2018-08-14T04:01:05.077Z,47.63
2018-08-14T04:03:33.316Z,48.60
2018-08-14T04:06:01.548Z,48.63
2018-08-14T04:08:29.776Z,48.97
2018-08-14T04:10:57.984Z,49.53
2018-08-14T04:13:26.262Z,52.70
2018-08-14T04:15:54.476Z,52.53
2018-08-14T04:18:22.736Z,51.13
2018-08-14T04:20:50.948Z,58.00
2018-08-14T04:23:19.184Z,57.47
2018-08-14T04:25:47.404Z,53.33
2018-08-14T04:28:15.647Z,50.83
2018-08-14T04:30:43.865Z,51.47
2018-08-14T04:33:12.124Z,50.90
2018-08-14T04:35:40.421Z,50.87
2018-08-14T04:38:08.669Z,52.27
2018-08-14T04:40:36.899Z,54.43
2018-08-14T04:43:05.176Z,45.53
2018-08-14T04:45:33.392Z,50.10
2018-08-14T04:48:01.681Z,45.10
2018-08-14T04:50:29.936Z,52.45
2018-08-14T04:52:58.210Z,59.57
2018-08-14T04:55:26.498Z,50.12
2018-08-14T04:57:54.804Z,46.23
2018-08-14T05:00:23.071Z,47.40
2018-08-14T05:02:51.665Z,52.25
2018-08-14T05:05:19.912Z,49.10
2018-08-14T05:07:48.177Z,49.10
2018-08-14T05:10:16.964Z,45.67
2018-08-14T05:12:45.736Z,41.77
2018-08-14T05:15:13.967Z,48.70
2018-08-14T05:17:43.268Z,37.65
2018-08-14T05:20:12.735Z,44.88
2018-08-14T05:22:41.661Z,45.37
2018-08-14T05:25:10.457Z,40.95
2018-08-14T05:27:39.176Z,44.42
2018-08-14T05:30:10.893Z,42.55
2018-08-14T05:32:39.508Z,41.93
2018-08-14T05:35:08.456Z,35.30
2018-08-14T05:37:37.809Z,43.47
2018-08-14T05:40:06.338Z,39.83
2018-08-14T05:42:34.638Z,36.37
2018-08-14T05:45:02.894Z,36.28
2018-08-14T05:47:31.298Z,37.20
2018-08-14T05:49:59.550Z,42.43
2018-08-14T05:52:27.844Z,35.67
2018-08-14T05:54:56.056Z,34.90
2018-08-14T05:57:24.297Z,37.17
2018-08-14T05:59:52.684Z,38.43
2018-08-14T06:02:20.900Z,37.20
2018-08-14T06:04:49.144Z,37.43
2018-08-14T06:07:18.858Z,38.47
2018-08-14T06:09:47.128Z,40.20
2018-08-14T06:12:15.342Z,36.10
2018-08-14T06:14:43.581Z,38.73
2018-08-14T06:17:11.878Z,40.30
2018-08-14T06:19:40.119Z,35.38
2018-08-14T06:22:08.442Z,44.33
2018-08-14T06:24:36.924Z,35.30
2018-08-14T06:27:05.883Z,37.28
2018-08-14T06:29:34.145Z,40.30
2018-08-14T06:32:02.384Z,39.27
2018-08-14T06:34:30.693Z,38.87
2018-08-14T06:36:58.889Z,40.03
2018-08-14T06:39:27.150Z,55.03
2018-08-14T06:41:55.384Z,42.43
2018-08-14T06:44:23.648Z,44.95
2018-08-14T06:46:51.856Z,38.70
2018-08-14T06:49:20.132Z,42.17
2018-08-14T06:51:48.380Z,43.30
2018-08-14T06:54:16.619Z,39.40
2018-08-14T06:56:44.839Z,36.40
2018-08-14T06:59:13.092Z,40.77
2018-08-14T07:01:41.308Z,42.30
2018-08-14T07:04:09.560Z,35.40
2018-08-14T07:06:37.811Z,37.70
2018-08-14T07:09:08.169Z,30.88
2018-08-14T07:11:36.389Z,35.60
2018-08-14T07:14:07.352Z,37.50
2018-08-14T07:16:36.151Z,36.20
2018-08-14T07:19:04.343Z,37.80
2018-08-14T07:21:32.568Z,27.82
2018-08-14T07:24:00.812Z,25.50
2018-08-14T07:26:29.049Z,28.40
2018-08-14T07:28:57.285Z,28.60
2018-08-14T07:31:25.495Z,31.17
2018-08-14T07:33:53.744Z,30.73
2018-08-14T07:36:21.985Z,24.07
2018-08-14T07:38:50.258Z,25.20
2018-08-14T07:41:23.147Z,25.70
2018-08-14T07:43:51.832Z,29.27
2018-08-14T07:46:20.048Z,23.03
2018-08-14T07:48:48.325Z,28.90
2018-08-14T07:51:16.542Z,23.73
2018-08-14T07:53:44.780Z,25.00
2018-08-14T07:56:13.005Z,23.17
2018-08-14T07:58:41.313Z,24.93
2018-08-14T08:01:09.547Z,28.60
2018-08-14T08:03:37.804Z,22.93
2018-08-14T08:06:06.139Z,24.93
2018-08-14T08:08:34.329Z,24.97
2018-08-14T08:11:02.575Z,25.80
2018-08-14T08:13:30.816Z,20.77
2018-08-14T08:15:59.055Z,17.63
2018-08-14T08:18:27.288Z,17.67
2018-08-14T08:20:55.521Z,17.60
2018-08-14T08:23:23.816Z,12.87
2018-08-14T08:25:52.078Z,18.20
2018-08-14T08:28:20.296Z,15.47
2018-08-14T08:30:48.556Z,14.83
2018-08-14T08:33:16.809Z,14.33
2018-08-14T08:35:45.047Z,12.20
2018-08-14T08:38:13.252Z,12.33
2018-08-14T08:40:41.486Z,16.80
2018-08-14T08:43:09.698Z,13.33
2018-08-14T08:45:37.933Z,15.90
2018-08-14T08:48:18.449Z,11.60
2018-08-14T08:50:46.974Z,12.27
2018-08-14T08:53:16.341Z,14.10
2018-08-14T08:55:44.576Z,13.30
2018-08-14T08:58:12.869Z,13.10
2018-08-14T09:00:41.041Z,9.80
2018-08-14T09:03:09.249Z,10.50
2018-08-14T09:05:38.343Z,11.30
2018-08-14T09:08:09.194Z,10.37
2018-08-14T09:10:37.412Z,10.27
2018-08-14T09:13:06.332Z,11.13
2018-08-14T09:15:34.575Z,11.80
2018-08-14T09:18:02.807Z,10.00
2018-08-14T09:20:31.043Z,13.70
2018-08-14T09:22:59.255Z,9.77
2018-08-14T09:25:27.517Z,10.70
2018-08-14T09:27:55.729Z,10.40
2018-08-14T09:30:24.003Z,10.93
2018-08-14T09:32:52.240Z,7.70
2018-08-14T09:35:20.492Z,6.50
2018-08-14T09:37:48.712Z,7.67
2018-08-14T09:40:18.695Z,7.27
2018-08-14T09:42:48.668Z,6.50
2018-08-14T09:45:16.863Z,7.93
2018-08-14T09:47:45.336Z,3.73
2018-08-14T09:50:21.470Z,5.53
2018-08-14T09:52:49.815Z,3.77
2018-08-14T09:55:19.288Z,6.37
2018-08-14T09:57:48.521Z,2.13
2018-08-14T10:00:33.636Z,5.10
2018-08-14T10:03:11.471Z,4.23
2018-08-14T10:05:45.117Z,2.10
2018-08-14T10:08:18.942Z,2.50
2018-08-14T10:10:47.186Z,3.40
2018-08-14T10:13:16.764Z,2.40
2018-08-14T10:15:45.009Z,2.20
2018-08-14T10:18:16.601Z,5.20
2018-08-14T10:20:44.893Z,3.70
2018-08-14T10:23:13.085Z,5.07
2018-08-14T10:25:41.340Z,2.73
2018-08-14T10:28:10.904Z,5.53
2018-08-14T10:30:39.157Z,8.07
2018-08-14T10:33:07.691Z,6.57
2018-08-14T10:35:36.100Z,4.40
2018-08-14T10:38:04.508Z,8.33
2018-08-14T10:40:32.716Z,7.43
2018-08-14T10:43:01.067Z,5.80
2018-08-14T10:45:29.287Z,11.30
2018-08-14T10:47:57.527Z,5.63
2018-08-14T10:50:25.858Z,5.13
2018-08-14T10:52:54.260Z,4.07
2018-08-14T10:55:22.557Z,5.30
2018-08-14T10:57:50.780Z,6.13
2018-08-14T11:00:22.436Z,2.90
2018-08-14T11:02:50.976Z,7.50
2018-08-14T11:05:19.805Z,4.10
2018-08-14T11:07:48.656Z,5.13
2018-08-14T11:10:20.408Z,4.80
2018-08-14T11:12:48.720Z,8.07
2018-08-14T11:15:16.956Z,4.30
2018-08-14T11:17:45.443Z,5.00
2018-08-14T11:20:20.323Z,8.33
2018-08-14T11:22:49.232Z,4.53
2018-08-14T11:25:17.684Z,5.27
2018-08-14T11:27:45.967Z,5.80
2018-08-14T11:30:21.609Z,3.53
2018-08-14T11:32:50.045Z,10.87
2018-08-14T11:35:18.724Z,7.03
2018-08-14T11:37:46.972Z,2.30
2018-08-14T11:40:15.184Z,2.83
2018-08-14T11:42:43.644Z,1.60
2018-08-14T11:45:18.227Z,3.37
2018-08-14T11:47:47.054Z,1.10
2018-08-14T11:50:16.620Z,1.43
2018-08-14T11:52:46.859Z,4.20
2018-08-14T11:55:16.252Z,4.03
2018-08-14T11:57:45.567Z,1.00
2018-08-14T12:00:16.381Z,2.00
2018-08-14T12:02:45.596Z,0.90
2018-08-14T12:05:13.925Z,1.87
2018-08-14T12:07:42.819Z,2.77
2018-08-14T12:10:12.497Z,0.70
2018-08-14T12:12:41.722Z,2.47
2018-08-14T12:15:11.457Z,8.43
2018-08-14T12:17:39.988Z,1.57
2018-08-14T12:20:10.100Z,0.70
2018-08-14T12:22:38.344Z,1.63
2018-08-14T12:25:06.760Z,2.33
2018-08-14T12:27:34.984Z,2.60
2018-08-14T12:30:03.226Z,2.73
2018-08-14T12:32:31.542Z,2.02
2018-08-14T12:34:59.763Z,3.30
2018-08-14T12:37:28.041Z,1.82
2018-08-14T12:39:56.260Z,2.00
2018-08-14T12:42:24.553Z,2.70
2018-08-14T12:44:54.344Z,3.20
2018-08-14T12:47:23.196Z,6.83
2018-08-14T12:49:51.546Z,7.53
2018-08-14T12:52:19.837Z,3.10
2018-08-14T12:54:48.644Z,2.70
2018-08-14T12:57:17.177Z,6.42
2018-08-14T12:59:45.457Z,2.25
2018-08-14T13:02:13.688Z,1.73
2018-08-14T13:04:41.998Z,5.53
2018-08-14T13:07:10.206Z,3.80
2018-08-14T13:09:38.450Z,8.70
2018-08-14T13:12:06.684Z,1.82
2018-08-14T13:14:34.968Z,10.70
2018-08-14T13:17:03.216Z,5.47
2018-08-14T13:19:31.460Z,3.45
2018-08-14T13:21:59.702Z,7.17
2018-08-14T13:24:27.950Z,2.80
2018-08-14T13:26:56.280Z,7.25
2018-08-14T13:29:24.530Z,9.23
2018-08-14T13:31:52.805Z,5.77
2018-08-14T13:34:23.445Z,4.73
2018-08-14T13:36:51.943Z,14.95
2018-08-14T13:39:20.640Z,4.23
2018-08-14T13:41:49.372Z,10.67
2018-08-14T13:44:19.022Z,4.97
2018-08-14T13:46:47.776Z,7.27
2018-08-14T13:49:16.687Z,8.60
2018-08-14T13:51:45.538Z,7.33
2018-08-14T13:54:14.946Z,10.87
2018-08-14T13:56:43.806Z,11.08
2018-08-14T13:59:12.947Z,13.80
2018-08-14T14:01:41.942Z,12.88
2018-08-14T14:04:10.592Z,6.67
2018-08-14T14:06:39.484Z,6.97
2018-08-14T14:09:07.733Z,19.23
2018-08-14T14:11:35.980Z,8.13
2018-08-14T14:14:04.934Z,16.37
2018-08-14T14:16:33.204Z,12.90
2018-08-14T14:19:01.441Z,7.83
2018-08-14T14:21:29.768Z,10.83
2018-08-14T14:23:58.008Z,8.25
2018-08-14T14:26:26.363Z,15.55
2018-08-14T14:28:54.585Z,11.93
2018-08-14T14:31:22.877Z,11.80
2018-08-14T14:33:51.234Z,7.10
2018-08-14T14:36:19.447Z,14.10
2018-08-14T14:38:47.787Z,11.68
2018-08-14T14:41:16.309Z,8.90
2018-08-14T14:43:44.620Z,6.07
2018-08-14T14:46:12.929Z,11.40
2018-08-14T14:48:42.268Z,16.80
2018-08-14T14:51:10.521Z,16.17
2018-08-14T14:53:38.752Z,19.43
2018-08-14T14:56:07.128Z,13.95
2018-08-14T14:58:35.396Z,14.33
2018-08-14T15:01:03.631Z,14.33
2018-08-14T15:03:31.932Z,17.80
2018-08-14T15:06:00.162Z,9.30
2018-08-14T15:08:28.388Z,17.12
2018-08-14T15:10:56.688Z,7.97
2018-08-14T15:13:24.925Z,7.00
2018-08-14T15:15:53.233Z,8.18
2018-08-14T15:18:22.457Z,10.50
2018-08-14T15:20:50.679Z,8.45
2018-08-14T15:23:18.871Z,8.97
2018-08-14T15:25:47.092Z,9.87
2018-08-14T15:28:53.067Z,7.60
2018-08-14T15:31:21.263Z,22.97
2018-08-14T15:33:50.297Z,9.73
2018-08-14T15:36:18.520Z,8.67
2018-08-14T15:38:46.736Z,5.80
2018-08-14T15:41:14.988Z,4.62
2018-08-14T15:43:43.195Z,24.00
2018-08-14T15:46:11.444Z,12.55
2018-08-14T15:48:39.676Z,7.43
2018-08-14T15:51:08.412Z,10.77
2018-08-14T15:53:36.648Z,6.60
2018-08-14T15:56:04.903Z,10.03
2018-08-14T15:58:33.132Z,10.37
2018-08-14T16:01:01.401Z,8.10
2018-08-14T16:03:29.575Z,8.75
2018-08-14T16:05:57.825Z,13.53
2018-08-14T16:08:26.020Z,7.30
2018-08-14T16:10:55.046Z,5.50
2018-08-14T16:13:23.249Z,7.87
2018-08-14T16:15:51.472Z,15.97
2018-08-14T16:18:19.672Z,19.60
2018-08-14T16:20:48.072Z,8.03
2018-08-14T16:23:16.256Z,11.13
2018-08-14T16:25:44.472Z,8.13
2018-08-14T16:28:12.736Z,19.57
2018-08-14T16:30:41.057Z,13.43
2018-08-14T16:33:09.285Z,12.93
2018-08-14T16:35:37.568Z,9.90
2018-08-14T16:38:06.188Z,19.73
2018-08-14T16:40:34.435Z,10.72
2018-08-14T16:43:02.707Z,13.48
2018-08-14T16:45:30.945Z,10.60
2018-08-14T16:47:59.187Z,14.50
2018-08-14T16:50:27.434Z,7.67
2018-08-14T16:52:55.654Z,7.67
2018-08-14T16:55:23.868Z,9.67
2018-08-14T16:57:52.079Z,2.60
2018-08-14T17:00:27.220Z,9.03
2018-08-14T17:02:56.473Z,13.23
2018-08-14T17:05:24.683Z,3.70
2018-08-14T17:07:53.261Z,7.43
2018-08-14T17:10:22.671Z,13.90
2018-08-14T17:12:51.012Z,8.90
2018-08-14T17:15:19.249Z,5.47
2018-08-14T17:17:48.320Z,7.90
2018-08-14T17:20:16.226Z,13.57
2018-08-14T17:22:44.511Z,6.40
2018-08-14T17:25:13.008Z,15.33
2018-08-14T17:27:48.484Z,6.25
2018-08-14T17:30:19.888Z,9.28
2018-08-14T17:32:48.904Z,13.25
2018-08-14T17:35:17.068Z,12.70
2018-08-14T17:37:45.316Z,7.90
2018-08-14T17:40:15.783Z,8.95
2018-08-14T17:42:44.164Z,4.90
2018-08-14T17:45:14.957Z,12.37
2018-08-14T17:47:43.167Z,17.53
2018-08-14T17:50:11.369Z,12.00
2018-08-14T17:52:39.624Z,7.43
2018-08-14T17:55:08.595Z,7.83
2018-08-14T17:57:36.936Z,6.95
2018-08-14T18:00:10.903Z,8.67
2018-08-14T18:02:39.690Z,15.33
2018-08-14T18:05:08.184Z,10.00
2018-08-14T18:07:36.404Z,6.10
2018-08-14T18:10:06.800Z,8.77
2018-08-14T18:12:35.447Z,8.87
2018-08-14T18:15:03.862Z,8.53
2018-08-14T18:17:32.091Z,13.03
2018-08-14T18:20:00.404Z,8.70
2018-08-14T18:22:28.563Z,14.83
2018-08-14T18:24:56.803Z,9.13
2018-08-14T18:27:25.985Z,7.53
2018-08-14T18:29:54.299Z,11.27
2018-08-14T18:32:22.667Z,9.70
2018-08-14T18:34:50.952Z,14.47
2018-08-14T18:37:19.324Z,9.20
2018-08-14T18:39:47.625Z,21.15
2018-08-14T18:42:15.864Z,16.07
2018-08-14T18:44:44.095Z,5.63
2018-08-14T18:47:12.907Z,4.58
2018-08-14T18:49:41.228Z,7.33
2018-08-14T18:52:09.489Z,19.80
2018-08-14T18:54:37.804Z,9.65
2018-08-14T18:57:06.271Z,7.72
2018-08-14T18:59:34.625Z,14.20
2018-08-14T19:02:03.048Z,6.60
2018-08-14T19:04:31.372Z,8.53
2018-08-14T19:07:00.680Z,7.50
2018-08-14T19:09:29.019Z,4.93
2018-08-14T19:11:57.277Z,7.03
2018-08-14T19:14:25.472Z,6.60
2018-08-14T19:16:53.711Z,17.27
2018-08-14T19:19:21.957Z,11.48
2018-08-14T19:21:50.262Z,5.20
2018-08-14T19:24:18.508Z,12.17
2018-08-14T19:26:47.112Z,5.20
2018-08-14T19:29:15.653Z,5.20
2018-08-14T19:31:44.112Z,8.57
2018-08-14T19:34:12.495Z,8.83
2018-08-14T19:36:41.264Z,6.42
2018-08-14T19:39:11.373Z,13.03
2018-08-14T19:41:40.787Z,15.70
2018-08-14T19:44:09.535Z,6.87
2018-08-14T19:46:38.876Z,4.42
2018-08-14T19:49:07.289Z,11.13
2018-08-14T19:51:35.621Z,5.73
2018-08-14T19:54:03.912Z,4.00
2018-08-14T19:56:32.159Z,10.10
2018-08-14T19:59:01.027Z,9.80
2018-08-14T20:01:29.382Z,7.40
2018-08-14T20:03:57.792Z,13.75
2018-08-14T20:06:26.027Z,13.73
2018-08-14T20:08:54.459Z,14.98
2018-08-14T20:11:22.742Z,18.30
2018-08-14T20:13:52.293Z,4.50
2018-08-14T20:16:20.579Z,4.83
2018-08-14T20:18:48.872Z,9.10
2018-08-14T20:21:17.196Z,7.50
2018-08-14T20:23:45.753Z,7.30
2018-08-14T20:26:13.999Z,9.18
2018-08-14T20:28:42.637Z,6.07
2018-08-14T20:31:10.855Z,9.53
2018-08-14T20:33:39.084Z,5.70
2018-08-14T20:36:08.200Z,6.33
2018-08-14T20:38:36.423Z,6.58
2018-08-14T20:41:04.732Z,9.43
2018-08-14T20:43:33.041Z,12.05
2018-08-14T20:46:01.567Z,9.53
2018-08-14T20:48:29.824Z,13.93
2018-08-14T20:50:58.196Z,13.57
2018-08-14T20:53:26.485Z,20.00
2018-08-14T20:55:54.801Z,7.33
2018-08-14T20:58:23.256Z,6.40
2018-08-14T21:00:51.546Z,5.47
2018-08-14T21:03:19.780Z,12.03
2018-08-14T21:05:47.977Z,6.97
2018-08-14T21:08:16.355Z,12.37
2018-08-14T21:10:44.552Z,8.37
2018-08-14T21:13:12.780Z,11.23
2018-08-14T21:15:46.480Z,8.50
2018-08-14T21:18:14.704Z,7.30
2018-08-14T21:20:42.946Z,10.15
2018-08-14T21:23:11.164Z,5.17
2018-08-14T21:25:39.355Z,4.80
2018-08-14T21:28:07.563Z,5.37
2018-08-14T21:30:35.815Z,5.73
2018-08-14T21:33:04.183Z,13.93
2018-08-14T21:35:32.397Z,11.73
2018-08-14T21:38:00.688Z,8.53
2018-08-14T21:40:28.920Z,6.10
2018-08-14T21:42:57.112Z,5.70
2018-08-14T21:45:25.328Z,7.83
2018-08-14T21:47:53.543Z,10.30
2018-08-14T21:50:21.752Z,6.70
2018-08-14T21:52:49.955Z,8.80
2018-08-14T21:55:18.173Z,9.20
2018-08-14T21:57:46.392Z,11.17
2018-08-14T22:00:21.926Z,7.20
2018-08-14T22:02:50.498Z,14.53
2018-08-14T22:05:18.724Z,12.43
2018-08-14T22:07:47.408Z,7.90
2018-08-14T22:10:17.479Z,9.10
2018-08-14T22:12:45.687Z,18.87
2018-08-14T22:15:13.922Z,8.10
2018-08-14T22:17:42.120Z,9.73
2018-08-14T22:20:12.339Z,12.57
2018-08-14T22:22:40.888Z,11.57
2018-08-14T22:25:09.115Z,10.37
2018-08-14T22:27:37.308Z,9.33
2018-08-14T22:30:08.318Z,9.60
2018-08-14T22:32:36.517Z,8.03
2018-08-14T22:35:05.272Z,7.37
2018-08-14T22:37:33.473Z,11.73
2018-08-14T22:40:02.000Z,6.47
2018-08-14T22:42:30.229Z,8.63
2018-08-14T22:44:58.527Z,15.53
2018-08-14T22:47:26.756Z,4.43
2018-08-14T22:49:54.983Z,14.50
2018-08-14T22:52:23.192Z,12.97
2018-08-14T22:54:51.461Z,6.87
2018-08-14T22:57:19.624Z,11.50
2018-08-14T22:59:47.840Z,10.00
2018-08-14T23:02:16.047Z,10.13
2018-08-14T23:04:44.279Z,13.13
2018-08-14T23:07:12.484Z,18.40
2018-08-14T23:09:40.711Z,6.73
2018-08-14T23:12:08.899Z,7.43
2018-08-14T23:14:37.110Z,11.03
2018-08-14T23:17:05.516Z,9.37
2018-08-14T23:19:33.783Z,8.97
2018-08-14T23:22:01.988Z,12.53
2018-08-14T23:24:30.223Z,13.40
2018-08-14T23:26:58.440Z,9.90
2018-08-14T23:29:26.707Z,13.93
2018-08-14T23:31:54.912Z,7.13
2018-08-14T23:34:23.112Z,6.63
2018-08-14T23:36:51.332Z,12.37
2018-08-14T23:39:19.549Z,4.23
2018-08-14T23:41:47.760Z,7.67
2018-08-14T23:44:15.964Z,7.63
2018-08-14T23:46:44.188Z,14.40
2018-08-14T23:49:12.415Z,7.43
2018-08-14T23:51:40.636Z,7.50
2018-08-14T23:54:08.867Z,6.43
2018-08-14T23:56:37.078Z,7.20
2018-08-14T23:59:05.400Z,2.30
